createdAt,value
2018-07-08T00:01:49.416Z,15.52
2018-07-08T00:02:49.243Z,15.41
2018-07-08T00:04:42.541Z,15.44
2018-07-08T00:05:42.454Z,15.38
2018-07-08T00:07:35.729Z,15.34
2018-07-08T00:08:35.666Z,15.33
2018-07-08T00:10:28.958Z,15.35
2018-07-08T00:11:28.874Z,15.51
2018-07-08T00:13:22.147Z,15.53
2018-07-08T00:14:22.085Z,15.40
2018-07-08T00:16:15.377Z,15.34
2018-07-08T00:17:15.297Z,15.31
2018-07-08T00:19:08.588Z,15.20
2018-07-08T00:20:08.506Z,15.25
2018-07-08T00:22:01.778Z,15.12
2018-07-08T00:23:01.715Z,15.08
2018-07-08T00:24:55.008Z,15.20
2018-07-08T00:25:54.925Z,15.18
2018-07-08T00:27:48.188Z,15.27
2018-07-08T00:28:48.123Z,15.22
2018-07-08T00:30:41.424Z,15.31
2018-07-08T00:31:41.332Z,15.15
2018-07-08T00:33:34.607Z,15.12
2018-07-08T00:34:34.541Z,15.15
2018-07-08T00:36:27.833Z,15.27
2018-07-08T00:37:27.754Z,15.18
2018-07-08T00:39:21.052Z,15.23
2018-07-08T00:40:20.959Z,15.20
2018-07-08T00:42:14.462Z,15.13
2018-07-08T00:43:14.398Z,15.07
2018-07-08T00:45:07.687Z,15.02
2018-07-08T00:46:07.606Z,15.10
2018-07-08T00:48:00.871Z,15.02
2018-07-08T00:49:00.805Z,15.02
2018-07-08T00:50:54.099Z,14.89
2018-07-08T00:51:54.014Z,14.93
2018-07-08T00:53:47.291Z,14.83
2018-07-08T00:54:47.223Z,14.80
2018-07-08T00:56:40.621Z,14.89
2018-07-08T00:57:40.432Z,15.00
2018-07-08T00:59:33.705Z,15.00
2018-07-08T01:00:33.642Z,14.98
2018-07-08T01:02:26.927Z,14.94
2018-07-08T01:03:26.850Z,14.85
2018-07-08T01:05:20.143Z,14.70
2018-07-08T01:06:20.059Z,14.74
2018-07-08T01:08:13.325Z,14.79
2018-07-08T01:09:13.259Z,14.77
2018-07-08T01:11:06.551Z,14.82
2018-07-08T01:12:06.466Z,14.79
2018-07-08T01:13:59.740Z,14.75
2018-07-08T01:14:59.675Z,14.79
2018-07-08T01:16:52.968Z,14.77
2018-07-08T01:17:52.882Z,14.83
2018-07-08T01:19:46.146Z,14.80
2018-07-08T01:20:46.083Z,14.86
2018-07-08T01:22:39.375Z,14.86
2018-07-08T01:23:39.293Z,14.82
2018-07-08T01:25:32.585Z,14.79
2018-07-08T01:26:32.501Z,14.67
2018-07-08T01:28:25.762Z,14.63
2018-07-08T01:29:25.697Z,14.69
2018-07-08T01:31:18.989Z,14.66
2018-07-08T01:32:18.905Z,14.74
2018-07-08T01:34:12.178Z,14.67
2018-07-08T01:35:12.113Z,14.70
2018-07-08T01:37:05.409Z,14.69
2018-07-08T01:38:05.325Z,14.70
2018-07-08T01:39:58.598Z,14.74
2018-07-08T01:40:58.534Z,14.77
2018-07-08T01:42:51.826Z,14.64
2018-07-08T01:43:51.741Z,14.59
2018-07-08T01:45:45.014Z,14.51
2018-07-08T01:46:44.951Z,14.52
2018-07-08T01:48:38.244Z,14.53
2018-07-08T01:49:38.161Z,14.57
2018-07-08T01:51:31.453Z,14.49
2018-07-08T01:52:31.368Z,14.59
2018-07-08T01:54:24.644Z,14.38
2018-07-08T01:55:24.575Z,14.42
2018-07-08T01:57:17.859Z,14.52
2018-07-08T01:58:17.774Z,14.48
2018-07-08T02:00:11.050Z,14.52
2018-07-08T02:01:10.981Z,14.46
2018-07-08T02:03:04.480Z,14.49
2018-07-08T02:04:04.398Z,14.53
2018-07-08T02:05:57.672Z,14.52
2018-07-08T02:06:57.635Z,14.33
2018-07-08T02:08:50.898Z,14.38
2018-07-08T02:09:50.811Z,14.48
2018-07-08T02:11:44.607Z,14.44
2018-07-08T02:12:44.018Z,14.36
2018-07-08T02:14:37.288Z,14.38
2018-07-08T02:15:37.222Z,14.34
2018-07-08T02:17:30.513Z,14.33
2018-07-08T02:18:30.432Z,14.34
2018-07-08T02:20:23.706Z,14.34
2018-07-08T02:21:23.639Z,14.23
2018-07-08T02:23:16.930Z,14.28
2018-07-08T02:24:16.846Z,14.26
2018-07-08T02:26:10.119Z,14.12
2018-07-08T02:27:10.055Z,14.16
2018-07-08T02:29:03.345Z,14.11
2018-07-08T02:30:03.268Z,14.09
2018-07-08T02:31:56.659Z,14.08
2018-07-08T02:32:56.470Z,14.08
2018-07-08T02:34:50.741Z,14.15
2018-07-08T02:35:50.690Z,14.09
2018-07-08T02:37:43.967Z,14.02
2018-07-08T02:38:43.875Z,13.93
2018-07-08T02:40:37.256Z,13.94
2018-07-08T02:41:37.083Z,13.93
2018-07-08T02:43:30.375Z,14.03
2018-07-08T02:44:30.292Z,14.02
2018-07-08T02:46:23.565Z,14.02
2018-07-08T02:47:23.500Z,13.94
2018-07-08T02:49:16.791Z,14.09
2018-07-08T02:50:16.708Z,14.02
2018-07-08T02:52:10.001Z,14.02
2018-07-08T02:53:09.917Z,14.01
2018-07-08T02:55:03.191Z,13.91
2018-07-08T02:56:03.124Z,13.86
2018-07-08T02:57:56.408Z,13.87
2018-07-08T02:58:56.323Z,13.83
2018-07-08T03:00:49.594Z,13.94
2018-07-08T03:01:49.529Z,13.86
2018-07-08T03:03:42.820Z,13.87
2018-07-08T03:04:42.734Z,13.84
2018-07-08T03:06:36.008Z,13.88
2018-07-08T03:07:35.945Z,13.93
2018-07-08T03:09:29.231Z,13.86
2018-07-08T03:10:29.149Z,13.93
2018-07-08T03:12:22.422Z,13.84
2018-07-08T03:13:22.364Z,13.83
2018-07-08T03:15:15.754Z,13.84
2018-07-08T03:16:15.577Z,13.90
2018-07-08T03:18:08.846Z,13.87
2018-07-08T03:19:08.762Z,13.84
2018-07-08T03:21:02.158Z,13.95
2018-07-08T03:22:01.973Z,13.99
2018-07-08T03:23:55.239Z,13.93
2018-07-08T03:24:55.177Z,13.86
2018-07-08T03:26:48.464Z,13.97
2018-07-08T03:27:48.383Z,13.95
2018-07-08T03:29:41.672Z,13.90
2018-07-08T03:30:41.589Z,13.90
2018-07-08T03:32:34.969Z,13.97
2018-07-08T03:33:34.839Z,13.90
2018-07-08T03:35:28.090Z,13.90
2018-07-08T03:36:28.003Z,13.86
2018-07-08T03:38:21.296Z,13.79
2018-07-08T03:39:21.209Z,13.83
2018-07-08T03:41:14.474Z,13.83
2018-07-08T03:42:14.409Z,13.87
2018-07-08T03:44:07.699Z,13.76
2018-07-08T03:45:07.616Z,13.76
2018-07-08T03:47:00.890Z,13.87
2018-07-08T03:48:00.823Z,13.73
2018-07-08T03:49:54.112Z,13.73
2018-07-08T03:50:54.028Z,13.73
2018-07-08T03:52:49.289Z,13.83
2018-07-08T03:53:49.224Z,13.83
2018-07-08T03:55:42.518Z,13.86
2018-07-08T03:56:42.436Z,13.84
2018-07-08T03:58:35.725Z,13.79
2018-07-08T03:59:35.632Z,13.90
2018-07-08T04:01:28.902Z,13.81
2018-07-08T04:02:28.838Z,13.94
2018-07-08T04:04:22.163Z,13.99
2018-07-08T04:05:22.041Z,13.97
2018-07-08T04:07:15.317Z,13.95
2018-07-08T04:08:15.252Z,14.05
2018-07-08T04:10:08.546Z,13.99
2018-07-08T04:11:08.509Z,13.99
2018-07-08T04:13:01.735Z,13.95
2018-07-08T04:14:01.668Z,13.95
2018-07-08T04:15:54.959Z,13.86
2018-07-08T04:16:54.875Z,13.94
2018-07-08T04:18:48.255Z,13.99
2018-07-08T04:19:48.081Z,13.91
2018-07-08T04:21:41.377Z,13.87
2018-07-08T04:22:41.289Z,13.87
2018-07-08T04:24:34.687Z,13.81
2018-07-08T04:25:34.497Z,13.79
2018-07-08T04:27:27.877Z,13.87
2018-07-08T04:28:27.705Z,13.90
2018-07-08T04:30:21.037Z,13.88
2018-07-08T04:31:20.913Z,13.84
2018-07-08T04:33:14.184Z,13.88
2018-07-08T04:34:14.120Z,13.97
2018-07-08T04:36:07.410Z,14.02
2018-07-08T04:37:07.326Z,14.08
2018-07-08T04:39:00.599Z,14.09
2018-07-08T04:40:00.534Z,14.02
2018-07-08T04:41:53.825Z,13.88
2018-07-08T04:42:53.741Z,13.88
2018-07-08T04:44:47.034Z,13.99
2018-07-08T04:45:46.955Z,13.99
2018-07-08T04:47:40.220Z,14.03
2018-07-08T04:48:40.157Z,14.12
2018-07-08T04:50:33.446Z,14.16
2018-07-08T04:51:33.363Z,14.08
2018-07-08T04:53:26.636Z,14.26
2018-07-08T04:54:26.571Z,14.23
2018-07-08T04:56:19.864Z,14.33
2018-07-08T04:57:19.779Z,14.36
2018-07-08T04:59:13.052Z,14.44
2018-07-08T05:00:12.990Z,14.45
2018-07-08T05:02:06.402Z,14.30
2018-07-08T05:03:06.275Z,14.38
2018-07-08T05:04:59.568Z,14.52
2018-07-08T05:05:59.484Z,14.48
2018-07-08T05:07:52.767Z,14.52
2018-07-08T05:08:52.682Z,14.39
2018-07-08T05:10:45.975Z,14.45
2018-07-08T05:11:45.892Z,14.48
2018-07-08T05:13:39.164Z,14.57
2018-07-08T05:14:39.094Z,14.63
2018-07-08T05:16:32.392Z,14.67
2018-07-08T05:17:32.312Z,14.74
2018-07-08T05:19:25.582Z,14.79
2018-07-08T05:20:25.530Z,14.83
2018-07-08T05:22:18.807Z,14.70
2018-07-08T05:23:18.726Z,14.79
2018-07-08T05:25:12.002Z,14.83
2018-07-08T05:26:11.937Z,14.82
2018-07-08T05:28:05.218Z,15.02
2018-07-08T05:29:05.136Z,15.00
2018-07-08T05:30:58.430Z,14.98
2018-07-08T05:31:58.350Z,14.82
2018-07-08T05:33:51.624Z,14.87
2018-07-08T05:34:51.557Z,14.90
2018-07-08T05:36:44.851Z,15.01
2018-07-08T05:37:44.767Z,15.07
2018-07-08T05:39:38.046Z,15.13
2018-07-08T05:40:37.978Z,15.08
2018-07-08T05:42:31.272Z,15.26
2018-07-08T05:43:31.188Z,15.31
2018-07-08T05:45:24.465Z,15.13
2018-07-08T05:46:24.397Z,15.04
2018-07-08T05:48:17.681Z,15.16
2018-07-08T05:49:17.600Z,15.18
2018-07-08T05:51:10.899Z,15.20
2018-07-08T05:52:10.810Z,15.35
2018-07-08T05:54:04.089Z,15.34
2018-07-08T05:55:04.020Z,15.43
2018-07-08T05:56:57.420Z,15.43
2018-07-08T05:57:57.231Z,15.49
2018-07-08T05:59:50.506Z,15.41
2018-07-08T06:00:50.443Z,15.43
2018-07-08T06:02:43.736Z,15.26
2018-07-08T06:03:43.654Z,15.27
2018-07-08T06:05:36.930Z,15.47
2018-07-08T06:06:36.869Z,15.58
2018-07-08T06:08:30.161Z,15.68
2018-07-08T06:09:30.080Z,15.68
2018-07-08T06:11:23.376Z,15.81
2018-07-08T06:12:23.291Z,15.75
2018-07-08T06:14:16.567Z,15.81
2018-07-08T06:15:16.536Z,15.68
2018-07-08T06:17:09.798Z,15.77
2018-07-08T06:18:09.755Z,15.98
2018-07-08T06:20:02.992Z,16.33
2018-07-08T06:21:02.931Z,16.48
2018-07-08T06:22:56.330Z,17.77
2018-07-08T06:23:56.146Z,18.34
2018-07-08T06:25:49.438Z,19.28
2018-07-08T06:26:49.371Z,19.40
2018-07-08T06:28:42.664Z,19.78
2018-07-08T06:29:42.592Z,19.55
2018-07-08T06:31:35.959Z,19.85
2018-07-08T06:32:35.828Z,20.08
2018-07-08T06:34:29.127Z,19.92
2018-07-08T06:35:29.069Z,20.10
2018-07-08T06:37:22.383Z,20.64
2018-07-08T06:38:22.314Z,20.82
2018-07-08T06:40:15.709Z,20.83
2018-07-08T06:41:15.561Z,20.71
2018-07-08T06:43:08.974Z,20.75
2018-07-08T06:44:08.808Z,20.56
2018-07-08T06:46:02.704Z,20.54
2018-07-08T06:47:02.062Z,20.81
2018-07-08T06:48:55.380Z,19.71
2018-07-08T06:49:55.308Z,19.71
2018-07-08T06:51:48.707Z,19.85
2018-07-08T06:52:48.561Z,20.01
2018-07-08T06:54:41.881Z,20.44
2018-07-08T06:55:41.811Z,21.01
2018-07-08T06:57:36.133Z,21.45
2018-07-08T06:58:36.066Z,21.06
2018-07-08T07:00:29.366Z,20.49
2018-07-08T07:01:29.317Z,20.29
2018-07-08T07:03:22.635Z,21.01
2018-07-08T07:04:22.569Z,20.90
2018-07-08T07:06:16.869Z,21.40
2018-07-08T07:07:16.821Z,21.06
2018-07-08T07:09:10.139Z,20.93
2018-07-08T07:10:10.071Z,20.96
2018-07-08T07:12:03.375Z,21.12
2018-07-08T07:13:03.324Z,21.37
2018-07-08T07:14:56.646Z,21.94
2018-07-08T07:15:56.583Z,21.96
2018-07-08T07:17:49.875Z,22.44
2018-07-08T07:18:49.824Z,21.59
2018-07-08T07:20:43.147Z,20.83
2018-07-08T07:21:43.080Z,20.18
2018-07-08T07:23:36.403Z,20.07
2018-07-08T07:24:36.335Z,20.53
2018-07-08T07:26:29.637Z,21.18
2018-07-08T07:27:29.588Z,21.52
2018-07-08T07:29:22.914Z,21.37
2018-07-08T07:30:22.847Z,20.44
2018-07-08T07:32:16.151Z,20.25
2018-07-08T07:33:16.100Z,20.53
2018-07-08T07:35:09.425Z,21.38
2018-07-08T07:36:09.354Z,20.58
2018-07-08T07:38:02.655Z,19.55
2018-07-08T07:39:02.599Z,19.17
2018-07-08T07:40:55.918Z,19.10
2018-07-08T07:41:55.853Z,19.24
2018-07-08T07:43:49.171Z,20.02
2018-07-08T07:44:49.101Z,19.79
2018-07-08T07:46:42.402Z,19.65
2018-07-08T07:47:42.352Z,19.34
2018-07-08T07:49:35.670Z,20.18
2018-07-08T07:50:35.601Z,20.30
2018-07-08T07:52:28.900Z,20.20
2018-07-08T07:53:28.851Z,20.63
2018-07-08T07:55:23.167Z,20.63
2018-07-08T07:56:23.098Z,20.42
2018-07-08T07:58:16.409Z,20.46
2018-07-08T07:59:16.337Z,20.56
2018-07-08T08:01:09.655Z,20.07
2018-07-08T08:02:09.583Z,19.68
2018-07-08T08:04:02.903Z,19.63
2018-07-08T08:05:02.836Z,20.32
2018-07-08T08:06:56.231Z,20.63
2018-07-08T08:07:56.082Z,20.16
2018-07-08T08:09:49.400Z,19.79
2018-07-08T08:10:49.348Z,20.16
2018-07-08T08:12:42.637Z,21.01
2018-07-08T08:13:42.573Z,21.51
2018-07-08T08:15:35.890Z,21.76
2018-07-08T08:16:35.818Z,21.74
2018-07-08T08:18:29.107Z,21.66
2018-07-08T08:19:29.054Z,21.80
2018-07-08T08:21:22.371Z,22.20
2018-07-08T08:22:22.300Z,21.73
2018-07-08T08:24:15.613Z,21.04
2018-07-08T08:25:15.543Z,21.38
2018-07-08T08:27:08.935Z,22.15
2018-07-08T08:28:08.784Z,22.02
2018-07-08T08:30:02.100Z,20.49
2018-07-08T08:31:02.025Z,20.68
2018-07-08T08:32:55.323Z,21.43
2018-07-08T08:33:55.267Z,21.77
2018-07-08T08:35:48.579Z,22.16
2018-07-08T08:36:48.506Z,22.26
2018-07-08T08:38:41.801Z,21.45
2018-07-08T08:39:41.748Z,21.21
2018-07-08T08:41:35.052Z,20.96
2018-07-08T08:42:34.984Z,21.18
2018-07-08T08:44:28.348Z,21.27
2018-07-08T08:45:28.293Z,21.31
2018-07-08T08:47:21.603Z,21.19
2018-07-08T08:48:21.530Z,20.85
2018-07-08T08:50:14.858Z,21.06
2018-07-08T08:51:14.770Z,21.18
2018-07-08T08:53:08.056Z,21.23
2018-07-08T08:54:07.999Z,21.11
2018-07-08T08:56:01.307Z,21.00
2018-07-08T08:57:01.232Z,21.31
2018-07-08T08:58:54.523Z,21.89
2018-07-08T08:59:54.466Z,22.27
2018-07-08T09:01:48.774Z,22.96
2018-07-08T09:02:48.702Z,23.15
2018-07-08T09:04:41.991Z,22.48
2018-07-08T09:05:41.936Z,22.51
2018-07-08T09:07:35.344Z,21.61
2018-07-08T09:08:35.168Z,21.25
2018-07-08T09:10:28.479Z,21.41
2018-07-08T09:11:28.404Z,21.86
2018-07-08T09:13:21.697Z,23.04
2018-07-08T09:14:21.639Z,22.52
2018-07-08T09:16:15.049Z,23.09
2018-07-08T09:17:14.923Z,22.89
2018-07-08T09:19:08.165Z,22.82
2018-07-08T09:20:08.108Z,22.94
2018-07-08T09:22:01.417Z,23.00
2018-07-08T09:23:01.347Z,23.74
2018-07-08T09:24:54.636Z,24.18
2018-07-08T09:25:54.581Z,23.28
2018-07-08T09:27:47.889Z,22.18
2018-07-08T09:28:47.820Z,22.33
2018-07-08T09:30:41.120Z,22.92
2018-07-08T09:31:41.048Z,22.66
2018-07-08T09:33:34.347Z,22.70
2018-07-08T09:34:34.293Z,22.92
2018-07-08T09:36:27.605Z,24.22
2018-07-08T09:37:27.530Z,24.96
2018-07-08T09:39:20.878Z,24.61
2018-07-08T09:40:20.762Z,24.45
2018-07-08T09:42:14.183Z,24.82
2018-07-08T09:43:14.006Z,23.94
2018-07-08T09:45:07.297Z,23.55
2018-07-08T09:46:07.247Z,23.38
2018-07-08T09:48:00.550Z,24.55
2018-07-08T09:49:00.476Z,24.59
2018-07-08T09:50:53.892Z,24.30
2018-07-08T09:51:53.715Z,25.09
2018-07-08T09:53:47.107Z,25.93
2018-07-08T09:54:46.954Z,25.48
2018-07-08T09:56:40.368Z,25.32
2018-07-08T09:57:40.296Z,25.59
2018-07-08T09:59:33.582Z,25.17
2018-07-08T10:00:33.534Z,24.94
2018-07-08T10:02:26.949Z,24.08
2018-07-08T10:03:26.776Z,24.78
2018-07-08T10:05:20.169Z,25.86
2018-07-08T10:06:20.020Z,26.64
2018-07-08T10:08:13.331Z,26.64
2018-07-08T10:09:13.260Z,25.74
2018-07-08T10:11:06.555Z,25.57
2018-07-08T10:12:06.507Z,26.32
2018-07-08T10:13:59.899Z,27.51
2018-07-08T10:14:59.747Z,26.94
2018-07-08T10:16:53.073Z,24.87
2018-07-08T10:17:53.111Z,24.52
2018-07-08T10:19:46.560Z,25.14
2018-07-08T10:20:46.299Z,25.75
2018-07-08T10:22:39.617Z,26.35
2018-07-08T10:23:39.544Z,25.62
2018-07-08T10:25:32.843Z,26.52
2018-07-08T10:26:32.792Z,27.13
2018-07-08T10:28:26.099Z,27.48
2018-07-08T10:29:26.030Z,26.57
2018-07-08T10:31:19.473Z,25.70
2018-07-08T10:32:19.421Z,26.26
2018-07-08T10:34:12.742Z,25.59
2018-07-08T10:35:12.672Z,25.39
2018-07-08T10:37:05.971Z,25.76
2018-07-08T10:38:05.921Z,26.38
2018-07-08T10:39:59.237Z,27.08
2018-07-08T10:40:59.166Z,27.59
2018-07-08T10:42:52.485Z,27.15
2018-07-08T10:43:52.413Z,26.93
2018-07-08T10:45:45.712Z,26.81
2018-07-08T10:46:45.663Z,26.35
2018-07-08T10:48:39.075Z,25.41
2018-07-08T10:49:38.912Z,25.19
2018-07-08T10:51:32.211Z,25.41
2018-07-08T10:52:32.159Z,25.07
2018-07-08T10:54:25.478Z,23.85
2018-07-08T10:55:25.427Z,24.33
2018-07-08T10:57:18.708Z,25.27
2018-07-08T10:58:18.655Z,25.84
2018-07-08T11:00:11.972Z,25.39
2018-07-08T11:01:11.900Z,24.78
2018-07-08T11:03:05.218Z,25.27
2018-07-08T11:04:05.150Z,26.09
2018-07-08T11:05:58.444Z,26.71
2018-07-08T11:06:58.392Z,26.06
2018-07-08T11:08:52.709Z,25.33
2018-07-08T11:09:52.637Z,25.33
2018-07-08T11:11:45.937Z,25.86
2018-07-08T11:12:45.883Z,26.42
2018-07-08T11:14:39.199Z,26.41
2018-07-08T11:15:39.129Z,25.82
2018-07-08T11:17:32.427Z,26.41
2018-07-08T11:18:32.375Z,26.16
2018-07-08T11:20:25.697Z,24.59
2018-07-08T11:21:25.631Z,24.86
2018-07-08T11:23:18.922Z,26.00
2018-07-08T11:24:18.870Z,26.64
2018-07-08T11:26:12.187Z,26.82
2018-07-08T11:27:12.119Z,26.84
2018-07-08T11:29:06.442Z,26.61
2018-07-08T11:30:06.371Z,25.29
2018-07-08T11:31:59.671Z,25.14
2018-07-08T11:32:59.612Z,25.85
2018-07-08T11:34:52.931Z,25.34
2018-07-08T11:35:52.862Z,25.27
2018-07-08T11:37:46.157Z,25.79
2018-07-08T11:38:46.115Z,26.09
2018-07-08T11:40:39.427Z,26.69
2018-07-08T11:41:39.355Z,26.60
2018-07-08T11:43:32.654Z,26.09
2018-07-08T11:44:32.601Z,25.86
2018-07-08T11:46:25.921Z,25.78
2018-07-08T11:47:25.847Z,25.75
2018-07-08T11:49:19.165Z,25.97
2018-07-08T11:50:19.097Z,25.27
2018-07-08T11:52:12.396Z,25.09
2018-07-08T11:53:12.338Z,24.94
2018-07-08T11:55:05.655Z,24.67
2018-07-08T11:56:05.584Z,24.70
2018-07-08T11:57:58.872Z,23.99
2018-07-08T11:58:58.820Z,23.92
2018-07-08T12:00:52.234Z,23.94
2018-07-08T12:01:52.107Z,23.93
2018-07-08T12:03:45.451Z,24.15
2018-07-08T12:04:45.302Z,24.59
2018-07-08T12:06:38.610Z,24.94
2018-07-08T12:07:38.539Z,25.11
2018-07-08T12:09:31.830Z,25.14
2018-07-08T12:10:31.775Z,25.08
2018-07-08T12:12:25.089Z,25.04
2018-07-08T12:13:25.013Z,25.15
2018-07-08T12:15:18.425Z,24.92
2018-07-08T12:16:18.250Z,24.45
2018-07-08T12:18:11.532Z,24.29
2018-07-08T12:19:11.480Z,24.26
2018-07-08T12:21:04.950Z,24.45
2018-07-08T12:22:04.715Z,24.40
2018-07-08T12:23:58.000Z,24.63
2018-07-08T12:24:57.953Z,24.77
2018-07-08T12:26:51.261Z,24.82
2018-07-08T12:27:51.196Z,24.67
2018-07-08T12:29:44.478Z,25.00
2018-07-08T12:30:44.422Z,25.05
2018-07-08T12:32:37.730Z,24.69
2018-07-08T12:33:37.655Z,24.71
2018-07-08T12:35:30.966Z,24.48
2018-07-08T12:36:30.890Z,24.80
2018-07-08T12:38:24.173Z,24.59
2018-07-08T12:39:24.120Z,24.70
2018-07-08T12:41:17.427Z,25.23
2018-07-08T12:42:17.354Z,25.32
2018-07-08T12:44:10.728Z,25.51
2018-07-08T12:45:10.585Z,25.60
2018-07-08T12:47:03.898Z,25.63
2018-07-08T12:48:03.823Z,25.47
2018-07-08T12:49:57.114Z,25.14
2018-07-08T12:50:57.063Z,25.27
2018-07-08T12:52:50.368Z,25.08
2018-07-08T12:53:50.298Z,25.17
2018-07-08T12:55:43.610Z,25.14
2018-07-08T12:56:43.535Z,25.00
2018-07-08T12:58:37.858Z,25.05
2018-07-08T12:59:37.772Z,25.14
2018-07-08T13:01:31.080Z,25.01
2018-07-08T13:02:31.007Z,24.89
2018-07-08T13:04:24.323Z,25.30
2018-07-08T13:05:24.241Z,25.33
2018-07-08T13:07:17.557Z,25.47
2018-07-08T13:08:17.487Z,25.66
2018-07-08T13:10:10.777Z,25.38
2018-07-08T13:11:10.718Z,25.51
2018-07-08T13:13:04.030Z,25.52
2018-07-08T13:14:03.957Z,25.17
2018-07-08T13:15:57.367Z,25.15
2018-07-08T13:16:57.296Z,25.08
2018-07-08T13:18:50.585Z,25.09
2018-07-08T13:19:50.567Z,25.27
2018-07-08T13:21:44.842Z,25.17
2018-07-08T13:22:44.768Z,25.38
2018-07-08T13:24:38.059Z,25.11
2018-07-08T13:25:38.007Z,25.14
2018-07-08T13:27:31.368Z,25.38
2018-07-08T13:28:31.300Z,25.38
2018-07-08T13:30:24.686Z,25.48
2018-07-08T13:31:24.533Z,25.62
2018-07-08T13:33:17.842Z,25.86
2018-07-08T13:34:17.771Z,25.96
2018-07-08T13:36:11.181Z,26.11
2018-07-08T13:37:11.009Z,25.63
2018-07-08T13:39:04.348Z,25.79
2018-07-08T13:40:04.244Z,25.84
2018-07-08T13:41:57.589Z,25.51
2018-07-08T13:42:57.503Z,25.42
2018-07-08T13:44:50.775Z,25.70
2018-07-08T13:45:50.718Z,25.29
2018-07-08T13:47:44.036Z,25.24
2018-07-08T13:48:43.959Z,25.37
2018-07-08T13:50:37.360Z,25.89
2018-07-08T13:51:37.296Z,26.11
2018-07-08T13:53:30.602Z,25.88
2018-07-08T13:54:30.531Z,25.84
2018-07-08T13:56:23.822Z,25.69
2018-07-08T13:57:23.773Z,25.70
2018-07-08T13:59:17.089Z,25.57
2018-07-08T14:00:17.007Z,25.51
2018-07-08T14:02:10.313Z,25.20
2018-07-08T14:03:10.242Z,25.14
2018-07-08T14:05:03.536Z,25.20
2018-07-08T14:06:03.487Z,25.24
2018-07-08T14:07:56.831Z,25.48
2018-07-08T14:08:56.721Z,25.14
2018-07-08T14:10:50.017Z,25.34
2018-07-08T14:11:49.956Z,25.51
2018-07-08T14:13:44.366Z,25.64
2018-07-08T14:14:44.253Z,25.70
2018-07-08T14:16:37.535Z,25.44
2018-07-08T14:17:37.434Z,25.44
2018-07-08T14:19:30.720Z,25.37
2018-07-08T14:20:30.721Z,25.14
2018-07-08T14:22:23.976Z,25.26
2018-07-08T14:23:23.904Z,25.48
2018-07-08T14:25:17.200Z,25.52
2018-07-08T14:26:17.143Z,25.57
2018-07-08T14:28:09.954Z,25.41
2018-07-08T14:29:09.882Z,25.26
2018-07-08T14:31:03.281Z,25.49
2018-07-08T14:32:03.118Z,25.66
2018-07-08T14:33:56.444Z,25.82
2018-07-08T14:34:56.522Z,25.79
2018-07-08T14:36:49.764Z,25.39
2018-07-08T14:37:49.590Z,25.45
2018-07-08T14:39:42.907Z,25.41
2018-07-08T14:40:42.882Z,25.62
2018-07-08T14:42:36.158Z,25.75
2018-07-08T14:43:36.071Z,25.85
2018-07-08T14:45:29.359Z,26.01
2018-07-08T14:46:29.301Z,26.23
2018-07-08T14:48:22.615Z,25.88
2018-07-08T14:49:22.541Z,25.75
2018-07-08T14:51:15.839Z,25.85
2018-07-08T14:52:15.786Z,25.88
2018-07-08T14:54:09.088Z,25.82
2018-07-08T14:55:09.012Z,25.67
2018-07-08T14:57:02.301Z,25.63
2018-07-08T14:58:02.252Z,25.81
2018-07-08T14:59:55.584Z,25.91
2018-07-08T15:00:55.502Z,26.11
2018-07-08T15:02:48.805Z,26.26
2018-07-08T15:03:48.737Z,25.88
2018-07-08T15:05:42.126Z,25.82
2018-07-08T15:06:41.969Z,25.76
2018-07-08T15:08:35.370Z,25.84
2018-07-08T15:09:35.296Z,25.71
2018-07-08T15:11:28.601Z,25.86
2018-07-08T15:12:28.582Z,25.96
2018-07-08T15:14:21.845Z,26.24
2018-07-08T15:15:21.782Z,26.34
2018-07-08T15:17:15.063Z,26.03
2018-07-08T15:18:15.010Z,26.09
2018-07-08T15:20:08.352Z,26.15
2018-07-08T15:21:08.295Z,26.01
2018-07-08T15:23:01.557Z,25.99
2018-07-08T15:24:01.484Z,26.09
2018-07-08T15:25:54.775Z,25.82
2018-07-08T15:26:54.722Z,25.81
2018-07-08T15:28:48.049Z,25.85
2018-07-08T15:29:47.965Z,25.82
2018-07-08T15:31:41.351Z,25.29
2018-07-08T15:32:41.295Z,25.39
2018-07-08T15:34:34.704Z,25.78
2018-07-08T15:35:34.554Z,25.88
2018-07-08T15:37:27.878Z,26.09
2018-07-08T15:38:27.811Z,26.01
2018-07-08T15:40:21.111Z,25.75
2018-07-08T15:41:21.038Z,25.74
2018-07-08T15:43:14.349Z,25.85
2018-07-08T15:44:14.273Z,25.86
2018-07-08T15:46:07.674Z,25.81
2018-07-08T15:47:07.574Z,25.81
2018-07-08T15:49:00.825Z,26.00
2018-07-08T15:50:00.751Z,25.91
2018-07-08T15:51:54.051Z,25.96
2018-07-08T15:52:53.997Z,25.62
2018-07-08T15:54:47.386Z,25.38
2018-07-08T15:55:47.298Z,25.47
2018-07-08T15:57:41.586Z,25.82
2018-07-08T15:58:41.531Z,25.86
2018-07-08T16:00:34.840Z,25.79
2018-07-08T16:01:34.771Z,25.54
2018-07-08T16:03:28.059Z,25.62
2018-07-08T16:04:28.003Z,25.79
2018-07-08T16:06:21.429Z,25.70
2018-07-08T16:07:21.289Z,25.59
2018-07-08T16:09:14.605Z,25.63
2018-07-08T16:10:14.530Z,25.63
2018-07-08T16:12:07.823Z,25.99
2018-07-08T16:13:07.767Z,25.93
2018-07-08T16:15:01.077Z,25.81
2018-07-08T16:16:01.005Z,26.01
2018-07-08T16:17:54.288Z,26.15
2018-07-08T16:18:54.271Z,26.04
2018-07-08T16:20:47.546Z,25.91
2018-07-08T16:21:47.472Z,25.69
2018-07-08T16:23:40.768Z,25.20
2018-07-08T16:24:40.757Z,25.20
2018-07-08T16:26:34.021Z,25.37
2018-07-08T16:27:33.948Z,25.44
2018-07-08T16:29:27.373Z,25.74
2018-07-08T16:30:27.297Z,25.84
2018-07-08T16:32:20.590Z,25.76
2018-07-08T16:33:20.531Z,25.75
2018-07-08T16:35:13.846Z,25.64
2018-07-08T16:36:13.768Z,25.76
2018-07-08T16:38:07.050Z,25.82
2018-07-08T16:39:06.996Z,25.63
2018-07-08T16:41:00.307Z,25.26
2018-07-08T16:42:00.232Z,25.30
2018-07-08T16:43:53.526Z,25.49
2018-07-08T16:44:53.470Z,25.71
2018-07-08T16:46:46.779Z,25.88
2018-07-08T16:47:46.702Z,26.03
2018-07-08T16:49:40.032Z,25.94
2018-07-08T16:50:39.947Z,25.84
2018-07-08T16:52:33.235Z,25.60
2018-07-08T16:53:33.180Z,25.82
2018-07-08T16:55:26.493Z,25.81
2018-07-08T16:56:26.424Z,25.81
2018-07-08T16:58:19.697Z,25.78
2018-07-08T16:59:19.647Z,25.70
2018-07-08T17:01:12.958Z,25.66
2018-07-08T17:02:12.951Z,25.67
2018-07-08T17:04:06.199Z,25.84
2018-07-08T17:05:06.120Z,25.84
2018-07-08T17:06:59.438Z,26.16
2018-07-08T17:07:59.360Z,26.00
2018-07-08T17:09:52.679Z,25.79
2018-07-08T17:10:52.595Z,25.91
2018-07-08T17:12:45.891Z,26.07
2018-07-08T17:13:45.832Z,26.16
2018-07-08T17:15:39.148Z,26.09
2018-07-08T17:16:39.072Z,25.88
2018-07-08T17:18:32.361Z,26.00
2018-07-08T17:19:32.302Z,25.97
2018-07-08T17:21:25.617Z,25.86
2018-07-08T17:22:25.541Z,25.75
2018-07-08T17:24:18.932Z,25.54
2018-07-08T17:25:18.778Z,25.52
2018-07-08T17:27:12.089Z,25.62
2018-07-08T17:28:12.016Z,25.49
2018-07-08T17:30:05.355Z,25.29
2018-07-08T17:31:05.296Z,25.24
2018-07-08T17:32:58.627Z,25.38
2018-07-08T17:33:58.553Z,25.47
2018-07-08T17:35:51.866Z,25.24
2018-07-08T17:36:51.789Z,25.19
2018-07-08T17:38:45.071Z,24.96
2018-07-08T17:39:45.018Z,24.90
2018-07-08T17:41:38.326Z,25.04
2018-07-08T17:42:38.254Z,25.05
2018-07-08T17:44:32.585Z,25.23
2018-07-08T17:45:32.529Z,25.15
2018-07-08T17:47:26.896Z,25.17
2018-07-08T17:48:26.757Z,25.17
2018-07-08T17:50:20.039Z,24.96
2018-07-08T17:51:19.986Z,25.11
2018-07-08T17:53:13.366Z,25.00
2018-07-08T17:54:13.292Z,24.97
2018-07-08T17:56:06.600Z,25.07
2018-07-08T17:57:06.527Z,25.02
2018-07-08T17:58:59.817Z,25.14
2018-07-08T17:59:59.787Z,25.15
2018-07-08T18:01:53.070Z,24.71
2018-07-08T18:02:52.996Z,24.80
2018-07-08T18:04:46.286Z,25.01
2018-07-08T18:05:46.230Z,24.97
2018-07-08T18:07:39.045Z,24.97
2018-07-08T18:08:38.970Z,25.01
2018-07-08T18:10:32.263Z,25.05
2018-07-08T18:11:32.206Z,25.04
2018-07-08T18:13:25.514Z,25.00
2018-07-08T18:14:25.463Z,24.85
2018-07-08T18:16:18.751Z,24.86
2018-07-08T18:17:18.675Z,24.92
2018-07-08T18:19:11.965Z,24.80
2018-07-08T18:20:11.909Z,24.83
2018-07-08T18:22:05.221Z,24.74
2018-07-08T18:23:05.174Z,24.75
2018-07-08T18:24:58.432Z,24.66
2018-07-08T18:25:58.380Z,24.52
2018-07-08T18:27:51.712Z,24.29
2018-07-08T18:28:51.633Z,24.22
2018-07-08T18:30:45.035Z,24.32
2018-07-08T18:31:44.859Z,24.33
2018-07-08T18:33:38.164Z,24.49
2018-07-08T18:34:38.089Z,24.40
2018-07-08T18:36:31.377Z,24.22